• Join FlightAware (Why Join?)
  • Login
  • US Flag 
05:17AM EDT


 

Airport Tracker/Info


-or-


 

Live Flight TrackerFlight Track Log ✈ QXE2340 ✈ 06-Nov-2013 ✈ KSEA - KMSO

Flight Track Log - Related Links

Times and Time Zones

All times are in EST time to prevent confusion due to time zone crossing. See the QXE2340 flight status page for this flight to view local times or setup timezone preferences in your user account.

Time Position Orientation Groundspeed Altitude Reporting Facility
EST Latitude Longitude Course Direction KTS MPH feet Rate Location/Type
01:35AM 47.4201 -121.3987 92° East  Level Estimated
01:36AM 47.4152 -121.2684 93° East  Level Estimated
01:37AM 47.4102 -121.1380 93° East  Level Estimated
01:38AM 47.4051 -121.0077 93° East  Level Estimated
01:39AM 47.3998 -120.8775 93° East  Level Estimated
01:40AM 47.3943 -120.7472 93° East  Level Estimated
01:41AM 47.3887 -120.6170 94° East  Level Estimated
01:42AM 47.3830 -120.4868 94° East  Level Estimated
01:43AM 47.3771 -120.3567 94° East  Level Estimated
01:44AM 47.3711 -120.2265 94° East  Level Estimated
01:45AM 47.3649 -120.0964 94° East  Level Estimated
01:46AM 47.3586 -119.9663 94° East  Level Estimated
01:47AM 47.3521 -119.8363 94° East  Level Estimated
01:48AM 47.3455 -119.7063 94° East  Level Estimated
01:49AM 47.3387 -119.5763 94° East  Level Estimated
01:50AM 47.3318 -119.4464 94° East  Level Estimated
01:51AM 47.3248 -119.3165 95° East  Level Estimated
01:52AM 47.3176 -119.1866 95° East  Level Estimated
01:53AM 47.3102 -119.0568 95° East  Level Estimated
01:54AM 47.3027 -118.9270 95° East  Level Estimated
01:55AM 47.2951 -118.7972 95° East  Level Estimated
01:56AM 47.2872 -118.6664 95° East  Level Estimated
01:57AM 47.2792 -118.5356 95° East  Level Estimated
01:58AM 47.2710 -118.4049 95° East  Level Estimated
01:59AM 47.2630 -118.2779 95° East  Level Estimated
02:00AM 47.2547 -118.1510 95° East  Level Estimated
02:01AM 47.2464 -118.0241 95° East  Level Estimated
02:02AM 47.2379 -117.8973 96° East  Level Estimated
02:03AM 47.2293 -117.7705 96° East  Level Estimated
02:04AM 47.2205 -117.6438 96° East  Level Estimated
02:05AM 47.2116 -117.5170 96° East  Level Estimated
02:06AM 47.2025 -117.3904 96° East  Level Estimated
02:07AM 47.1934 -117.2637 96° East  Level Estimated
02:08AM 47.1841 -117.1372 96° East  Level Estimated
02:09AM 47.1746 -117.0106 96° East  Level Estimated
02:10AM 47.1650 -116.8841 96° East  Level Estimated
02:11AM 47.1553 -116.7577 96° East  Level Estimated
02:12AM 47.1452 -116.6287 97° East  Level Estimated
02:13AM 47.1349 -116.4990 97° East  Level Estimated
02:14AM 47.1244 -116.3693 97° East  Level Estimated
02:15AM 47.1138 -116.2397 97° East  Level Estimated
02:16AM 47.1031 -116.1101 97° East  Level Estimated
02:17AM 47.0921 -115.9788 97° East  Level Estimated
02:18AM 47.0809 -115.8475 97° East  Level Estimated
02:19AM 47.0696 -115.7163 97° East  Level Estimated
02:20AM 47.0581 -115.5847 97° East  Level Estimated
02:21AM 47.0464 -115.4533 97° East  Level Estimated
02:22AM 47.0346 -115.3221 97° East  Level Estimated
02:23AM 47.0227 -115.1907 98° East  Level Estimated
02:24AM 47.0105 -115.0593 98° East  Level Estimated
02:25AM 46.9983 -114.9280 98° East  Level Estimated
02:26AM 46.9858 -114.7968 98° East  Level Estimated
02:27AM 46.9733 -114.6656 98° East  Level Estimated
02:28AM 46.9605 -114.5345 98° East  Level Estimated
02:29AM 46.9477 -114.4035 98° East  Level Estimated
02:30AM 46.9347 -114.2725 98° East  Level Estimated
02:31AM 46.9215 -114.1415 98° East  Level Estimated
02:32AM 46.9163 -114.0906 98° East  Level Estimated
02:33AM 46.9163 -114.0906 146° Southeast  Level Estimated
02:34AM 46.9163 -114.0906 146° Southeast  Level Estimated
02:35AM 46.9163 -114.0906 146° Southeast  Level Estimated
02:36AM 46.9163 -114.0906 146° Southeast  Level Estimated
02:37AM 46.9163 -114.0906 146° Southeast  Level Estimated
02:38AM 46.9163 -114.0906 146° Southeast  Level Estimated
02:39AM 46.9163 -114.0906 146° Southeast  Level Estimated
02:40AM 46.9163 -114.0906 146° Southeast  Level Estimated
02:41AM 46.9163 -114.0906 146° Southeast  Level Estimated
02:42AM 46.9163 -114.0906 146° Southeast  Level Estimated
02:43AM 46.9163 -114.0906 146° Southeast  Level Estimated
02:44AM 46.9163 -114.0906 146° Southeast  Level Estimated